Time;durP1;ratioP1;P1;durP2;ratioP2;P2;SDS_P1;SDS_P2;PMS_P1;PMS_P2;Temp;Humidity;BMP_temperature;BMP_pressure;BME280_temperature;BME280_humidity;BME280_pressure;Samples;Min_cycle;Max_cycle;Signal;HPM_P1;HPM_P2
2021/01/27 00:01:01;;;;;;;6.83;5.40;;;0.30;99.90;;;;;;6145088;23;20191;-88
2021/01/27 00:03:27;;;;;;;9.00;6.50;;;0.30;99.90;;;;;;6147091;23;20164;-88
2021/01/27 00:05:53;;;;;;;8.97;5.60;;;0.30;99.90;;;;;;6147342;23;20665;-89
2021/01/27 00:08:21;;;;;;;8.67;5.50;;;0.30;99.90;;;;;;6147082;23;20490;-90
2021/01/27 00:10:47;;;;;;;8.20;6.30;;;0.30;99.90;;;;;;6147999;23;20396;-88
2021/01/27 00:13:17;;;;;;;6.80;6.00;;;0.30;99.90;;;;;;6145974;23;20459;-87
2021/01/27 00:15:44;;;;;;;7.67;6.37;;;0.30;99.90;;;;;;6146799;23;20442;-88
2021/01/27 00:18:11;;;;;;;8.90;5.70;;;0.30;99.90;;;;;;6147171;23;20939;-88
2021/01/27 00:20:37;;;;;;;11.77;6.50;;;0.40;99.90;;;;;;6148334;23;20395;-89
2021/01/27 00:23:04;;;;;;;8.70;6.20;;;0.30;99.90;;;;;;6147998;23;20400;-89
2021/01/27 00:25:33;;;;;;;11.63;6.90;;;0.40;99.90;;;;;;6148308;23;20160;-88
2021/01/27 00:28:00;;;;;;;9.60;7.20;;;0.40;99.90;;;;;;6147704;23;20396;-89
2021/01/27 00:30:34;;;;;;;8.03;5.93;;;0.40;99.90;;;;;;6147673;23;20396;-89
2021/01/27 00:33:00;;;;;;;6.60;5.90;;;0.40;99.90;;;;;;6148488;23;20413;-89
2021/01/27 00:35:29;;;;;;;8.90;5.23;;;0.40;99.90;;;;;;6148226;23;20431;-89
2021/01/27 00:37:56;;;;;;;5.90;5.23;;;0.30;99.90;;;;;;6147628;23;20395;-89
2021/01/27 00:40:23;;;;;;;6.13;5.60;;;0.40;99.90;;;;;;6147852;23;20383;-88
2021/01/27 00:42:49;;;;;;;10.23;6.00;;;0.30;99.90;;;;;;6145697;23;20395;-88
2021/01/27 00:45:16;;;;;;;5.50;5.00;;;0.40;99.90;;;;;;6144219;23;20486;-88
2021/01/27 00:47:42;;;;;;;7.07;6.37;;;0.30;99.90;;;;;;6137792;23;20380;-88
2021/01/27 00:50:09;;;;;;;9.30;5.70;;;0.30;99.90;;;;;;6144720;23;20407;-88
2021/01/27 00:52:35;;;;;;;5.47;4.97;;;0.30;99.90;;;;;;6148234;23;20164;-87
2021/01/27 00:55:01;;;;;;;7.80;5.93;;;0.30;99.90;;;;;;6147735;23;20757;-88
2021/01/27 00:57:26;;;;;;;8.07;5.73;;;0.20;99.90;;;;;;6148196;23;20235;-88
2021/01/27 00:59:52;;;;;;;6.10;5.50;;;0.20;99.90;;;;;;6146728;23;20490;-87
2021/01/27 01:02:18;;;;;;;8.00;5.67;;;0.20;99.90;;;;;;6146117;23;20215;-87
2021/01/27 01:04:44;;;;;;;7.00;5.90;;;0.20;99.90;;;;;;6148371;23;20172;-89
2021/01/27 01:07:09;;;;;;;7.17;6.07;;;0.20;99.90;;;;;;6147870;23;20407;-89
2021/01/27 01:09:35;;;;;;;6.87;5.43;;;0.30;99.90;;;;;;6145722;23;20415;-90
2021/01/27 01:12:01;;;;;;;8.43;6.00;;;0.30;99.90;;;;;;6146844;23;20172;-88
2021/01/27 01:14:26;;;;;;;7.10;5.00;;;0.30;99.90;;;;;;6146660;23;20603;-87
2021/01/27 01:16:52;;;;;;;9.07;6.40;;;0.30;99.90;;;;;;6147217;23;20195;-88
2021/01/27 01:19:19;;;;;;;6.47;4.53;;;0.30;99.90;;;;;;6146169;23;20523;-89
2021/01/27 01:21:44;;;;;;;4.93;4.23;;;0.30;99.90;;;;;;6145656;23;20172;-89
2021/01/27 01:24:10;;;;;;;6.37;5.53;;;0.30;99.90;;;;;;6147206;23;20399;-90
2021/01/27 01:26:36;;;;;;;6.53;4.70;;;0.30;99.90;;;;;;6146699;23;20176;-90
2021/01/27 01:29:02;;;;;;;5.07;4.60;;;0.20;99.90;;;;;;6147339;23;21125;-89
2021/01/27 01:31:28;;;;;;;12.20;6.10;;;0.30;99.90;;;;;;6145639;23;20239;-89
2021/01/27 01:33:54;;;;;;;8.43;5.63;;;0.30;99.90;;;;;;6145286;23;20430;-89
2021/01/27 01:36:20;;;;;;;6.50;4.60;;;0.30;99.90;;;;;;6146903;23;20203;-90
2021/01/27 01:38:45;;;;;;;6.27;5.03;;;0.30;99.90;;;;;;6147607;23;20595;-90
2021/01/27 01:41:11;;;;;;;8.60;5.00;;;0.20;99.90;;;;;;6145457;23;20164;-90
2021/01/27 01:43:39;;;;;;;7.03;5.00;;;0.10;99.90;;;;;;6145430;23;20532;-90
2021/01/27 01:46:13;;;;;;;8.03;4.70;;;0.10;99.90;;;;;;6148144;23;20724;-90
2021/01/27 01:48:52;;;;;;;5.50;4.77;;;0.10;99.90;;;;;;6145421;23;20414;-90
2021/01/27 01:51:40;;;;;;;6.20;4.53;;;0.20;99.90;;;;;;6145651;23;20898;-90
2021/01/27 01:54:31;;;;;;;5.60;4.73;;;0.20;99.90;;;;;;6148076;23;20743;-89
2021/01/27 01:57:01;;;;;;;6.10;4.30;;;0.30;99.90;;;;;;6147082;23;20443;-90
2021/01/27 01:59:33;;;;;;;7.53;4.00;;;0.30;99.90;;;;;;6145386;23;20862;-90
2021/01/27 02:02:06;;;;;;;6.07;4.50;;;0.30;99.90;;;;;;6144825;23;20919;-90
2021/01/27 02:04:53;;;;;;;4.70;3.73;;;0.30;99.90;;;;;;6146460;23;20911;-90
2021/01/27 02:07:19;;;;;;;6.07;3.47;;;0.30;99.90;;;;;;6146906;23;20404;-90
2021/01/27 02:09:45;;;;;;;6.20;4.37;;;0.30;99.90;;;;;;6146484;23;20400;-90
2021/01/27 02:12:35;;;;;;;4.40;3.80;;;0.40;99.90;;;;;;6146779;23;20907;-90
2021/01/27 02:15:27;;;;;;;9.30;3.90;;;0.30;99.90;;;;;;6146216;23;20196;-90
2021/01/27 02:18:05;;;;;;;4.80;3.80;;;0.40;99.90;;;;;;6140551;23;20471;-90
2021/01/27 02:21:00;;;;;;;3.80;3.47;;;0.40;99.90;;;;;;6145583;23;20399;-89
2021/01/27 02:23:37;;;;;;;5.27;3.63;;;0.40;99.90;;;;;;6146871;23;20406;-89
2021/01/27 02:26:18;;;;;;;5.33;3.63;;;0.40;99.90;;;;;;6147319;23;20395;-90
2021/01/27 02:29:11;;;;;;;5.00;3.63;;;0.40;99.90;;;;;;6146855;23;20395;-89
2021/01/27 02:31:43;;;;;;;5.97;4.40;;;0.40;99.90;;;;;;6147317;23;20635;-90
2021/01/27 02:34:15;;;;;;;7.93;3.97;;;0.40;99.90;;;;;;6147423;23;20450;-89
2021/01/27 02:36:43;;;;;;;5.63;4.00;;;0.30;99.90;;;;;;6148716;23;20514;-89
2021/01/27 02:39:19;;;;;;;5.03;4.07;;;0.30;99.90;;;;;;6149566;23;20426;-89
2021/01/27 02:42:14;;;;;;;5.57;3.70;;;0.30;99.90;;;;;;6147712;23;20391;-90
2021/01/27 02:44:49;;;;;;;4.77;3.87;;;0.20;99.90;;;;;;6148650;23;20442;-90
2021/01/27 02:47:31;;;;;;;7.10;3.70;;;0.20;99.90;;;;;;6147289;23;20438;-90
2021/01/27 02:50:04;;;;;;;4.77;4.17;;;0.20;99.90;;;;;;6148085;23;20399;-89
2021/01/27 02:52:41;;;;;;;7.83;4.60;;;0.10;99.90;;;;;;6148575;23;20384;-89
2021/01/27 02:55:41;;;;;;;4.73;3.77;;;0.10;99.90;;;;;;6149619;23;20407;-90
2021/01/27 02:58:14;;;;;;;5.60;3.60;;;0.10;99.90;;;;;;6124588;23;20400;-89
2021/01/27 03:00:44;;;;;;;3.70;3.40;;;0.00;99.90;;;;;;6147825;23;20449;-91
2021/01/27 03:03:47;;;;;;;5.20;4.20;;;0.10;99.90;;;;;;6148203;23;20400;-90
2021/01/27 03:06:17;;;;;;;4.70;3.83;;;0.10;99.90;;;;;;6028986;23;20424;-90
2021/01/27 03:08:51;;;;;;;4.00;3.53;;;0.10;99.90;;;;;;6128989;23;20402;-90
2021/01/27 03:11:20;;;;;;;6.13;3.73;;;0.10;99.90;;;;;;6148142;23;20407;-90
2021/01/27 03:13:46;;;;;;;8.57;4.47;;;0.10;99.90;;;;;;6150219;23;20406;-90
2021/01/27 03:16:27;;;;;;;4.40;4.00;;;0.10;99.90;;;;;;6147516;23;20459;-90
2021/01/27 03:19:10;;;;;;;4.13;3.70;;;0.10;99.90;;;;;;6149444;23;20494;-89
2021/01/27 03:21:41;;;;;;;6.33;4.30;;;0.10;99.90;;;;;;6148316;23;20396;-90
2021/01/27 03:24:21;;;;;;;5.37;4.80;;;0.10;99.90;;;;;;6150115;23;21058;-90
2021/01/27 03:26:52;;;;;;;5.70;4.43;;;0.10;99.90;;;;;;6149544;23;20466;-90
2021/01/27 03:29:45;;;;;;;5.00;4.03;;;0.10;99.90;;;;;;6148098;23;20400;-90
2021/01/27 03:32:29;;;;;;;5.67;4.57;;;0.00;99.90;;;;;;6148408;23;20640;-90
2021/01/27 03:35:29;;;;;;;7.40;4.77;;;0.00;99.90;;;;;;6148286;23;20395;-89
2021/01/27 03:38:04;;;;;;;7.13;4.70;;;0.00;99.90;;;;;;6148235;23;20415;-88
2021/01/27 03:40:30;;;;;;;5.20;4.70;;;-0.10;99.90;;;;;;6147992;23;20403;-91
2021/01/27 03:43:04;;;;;;;5.60;4.70;;;-0.10;99.90;;;;;;6147537;23;20887;-91
2021/01/27 03:45:35;;;;;;;10.03;5.10;;;-0.10;99.90;;;;;;6148266;23;20396;-90
2021/01/27 03:48:29;;;;;;;4.83;4.40;;;-0.10;99.90;;;;;;6149603;23;20470;-91
2021/01/27 03:50:58;;;;;;;5.27;4.77;;;-0.10;99.90;;;;;;6136409;23;20828;-90
2021/01/27 03:53:26;;;;;;;6.23;4.50;;;-0.10;99.90;;;;;;6148255;23;20483;-90
2021/01/27 03:55:57;;;;;;;5.13;4.63;;;0.00;99.90;;;;;;6147723;23;20455;-91
2021/01/27 03:58:33;;;;;;;7.00;4.93;;;0.00;99.90;;;;;;6148518;23;21042;-90
2021/01/27 04:01:05;;;;;;;5.40;4.90;;;0.00;99.90;;;;;;6146675;23;20722;-90
2021/01/27 04:03:31;;;;;;;5.83;5.00;;;-0.10;99.90;;;;;;6146273;23;20395;-89
2021/01/27 04:05:57;;;;;;;4.43;3.67;;;-0.10;99.90;;;;;;6147655;23;20395;-89
2021/01/27 04:08:23;;;;;;;6.33;4.50;;;0.00;99.90;;;;;;6148629;23;20415;-89
2021/01/27 04:10:49;;;;;;;5.90;4.37;;;0.00;99.90;;;;;;6146522;23;20691;-89
2021/01/27 04:13:15;;;;;;;5.73;4.37;;;0.00;99.90;;;;;;6148476;23;20396;-89
2021/01/27 04:15:41;;;;;;;5.63;4.43;;;0.00;99.90;;;;;;6148435;23;20438;-88
2021/01/27 04:18:07;;;;;;;5.27;3.70;;;0.00;99.90;;;;;;6147903;23;20407;-89
2021/01/27 04:20:32;;;;;;;4.07;3.77;;;0.00;99.90;;;;;;6147885;23;20160;-90
2021/01/27 04:22:58;;;;;;;6.67;4.03;;;0.10;99.90;;;;;;6147850;23;20299;-90
2021/01/27 04:25:24;;;;;;;4.70;4.23;;;0.20;99.90;;;;;;6147874;23;20156;-89
2021/01/27 04:27:50;;;;;;;4.70;4.20;;;0.10;99.90;;;;;;6148635;23;20160;-89
2021/01/27 04:30:25;;;;;;;5.23;4.53;;;0.10;99.90;;;;;;6145836;23;20391;-89
2021/01/27 04:32:51;;;;;;;6.03;3.63;;;0.10;99.90;;;;;;6147733;23;20403;-90
2021/01/27 04:35:18;;;;;;;5.00;4.33;;;0.20;99.90;;;;;;6148355;23;20408;-90
2021/01/27 04:37:44;;;;;;;8.17;5.20;;;0.20;99.90;;;;;;6146811;23;20517;-90
2021/01/27 04:40:16;;;;;;;8.17;6.20;;;0.20;99.90;;;;;;6146950;23;20912;-89
2021/01/27 04:42:42;;;;;;;8.70;4.97;;;0.20;99.90;;;;;;6147835;23;20458;-90
2021/01/27 04:45:09;;;;;;;4.60;4.10;;;0.20;99.90;;;;;;6147363;23;20391;-90
2021/01/27 04:48:06;;;;;;;7.07;5.30;;;0.20;99.90;;;;;;6147161;23;20408;-91
2021/01/27 04:50:39;;;;;;;6.87;6.17;;;0.20;99.90;;;;;;6147302;23;20392;-90
2021/01/27 04:53:33;;;;;;;4.80;4.03;;;0.30;99.90;;;;;;6145869;23;20465;-89
2021/01/27 04:56:23;;;;;;;4.83;4.23;;;0.20;99.90;;;;;;6170657;23;20502;-88
2021/01/27 04:59:10;;;;;;;5.80;3.90;;;0.20;99.90;;;;;;6147985;23;20901;-89
2021/01/27 05:02:08;;;;;;;5.30;4.90;;;0.20;99.90;;;;;;6145566;23;20446;-89
2021/01/27 05:04:44;;;;;;;6.27;4.70;;;0.20;99.90;;;;;;6145946;23;20391;-90
2021/01/27 05:07:12;;;;;;;5.33;3.60;;;0.10;99.90;;;;;;6146104;23;20399;-90
2021/01/27 05:10:00;;;;;;;7.20;4.10;;;0.10;99.90;;;;;;6146489;23;20403;-90
2021/01/27 05:12:40;;;;;;;5.27;4.40;;;0.10;99.90;;;;;;6147327;23;20399;-90
2021/01/27 05:15:07;;;;;;;5.17;4.67;;;0.10;99.90;;;;;;6146730;23;20392;-90
2021/01/27 05:17:33;;;;;;;9.20;6.37;;;0.10;99.90;;;;;;6146318;23;20415;-89
2021/01/27 05:19:58;;;;;;;5.90;5.30;;;0.10;99.90;;;;;;6145863;23;20383;-89
2021/01/27 05:22:27;;;;;;;7.40;5.90;;;0.10;99.90;;;;;;6146448;23;20168;-89
2021/01/27 05:24:53;;;;;;;5.97;4.97;;;0.00;99.90;;;;;;6147050;23;20157;-89
2021/01/27 05:27:29;;;;;;;6.30;4.90;;;0.10;99.90;;;;;;6146330;23;20402;-88
2021/01/27 05:29:57;;;;;;;5.57;4.70;;;0.10;99.90;;;;;;6146950;23;20219;-89
2021/01/27 05:32:25;;;;;;;5.33;4.83;;;0.10;99.90;;;;;;6147877;23;20402;-89
2021/01/27 05:34:56;;;;;;;6.73;4.87;;;0.00;99.90;;;;;;6172509;23;20400;-88
2021/01/27 05:37:28;;;;;;;5.30;4.40;;;0.10;99.90;;;;;;6146815;23;20443;-89
2021/01/27 05:40:06;;;;;;;5.60;4.80;;;0.10;99.90;;;;;;6147171;23;20558;-89
2021/01/27 05:42:35;;;;;;;5.37;4.20;;;0.00;99.90;;;;;;6146701;23;20478;-90
2021/01/27 05:45:48;;;;;;;4.90;4.20;;;0.00;99.90;;;;;;6146562;23;20478;-89
2021/01/27 05:48:30;;;;;;;6.57;4.80;;;0.10;99.90;;;;;;6121618;23;20404;-89
2021/01/27 05:51:27;;;;;;;4.33;3.90;;;0.10;99.90;;;;;;6147486;23;20430;-89
2021/01/27 05:53:53;;;;;;;8.23;7.17;;;0.10;99.90;;;;;;6146028;23;20873;-90
2021/01/27 05:56:22;;;;;;;8.67;7.83;;;0.10;99.90;;;;;;6147371;23;20828;-89
2021/01/27 05:59:06;;;;;;;9.67;8.47;;;0.00;99.90;;;;;;6144710;23;20478;-86
2021/01/27 06:01:43;;;;;;;6.30;5.57;;;0.00;99.90;;;;;;6148536;23;20407;-85
2021/01/27 06:04:12;;;;;;;10.17;7.00;;;0.00;99.90;;;;;;6148766;23;20424;-86
2021/01/27 06:07:00;;;;;;;5.77;5.17;;;0.00;99.90;;;;;;6150889;23;20390;-86
2021/01/27 06:09:47;;;;;;;5.10;4.53;;;0.00;99.90;;;;;;6150605;23;20722;-86
2021/01/27 06:12:20;;;;;;;4.70;4.17;;;0.10;99.90;;;;;;6150874;23;20883;-87
2021/01/27 06:15:08;;;;;;;6.30;4.53;;;0.10;99.90;;;;;;6150290;23;20388;-88
2021/01/27 06:17:43;;;;;;;5.00;4.50;;;0.20;99.90;;;;;;6130462;23;20495;-88
2021/01/27 06:20:15;;;;;;;4.87;4.37;;;0.10;99.90;;;;;;6149288;23;20414;-86
2021/01/27 06:23:13;;;;;;;5.33;4.37;;;0.10;99.90;;;;;;6145329;23;20729;-88
2021/01/27 06:25:39;;;;;;;6.13;5.30;;;0.20;99.90;;;;;;6152350;23;20407;-90
2021/01/27 06:28:35;;;;;;;5.37;4.70;;;0.20;99.90;;;;;;6153938;23;20410;-92
2021/01/27 06:31:49;;;;;;;5.17;4.33;;;0.20;99.90;;;;;;6151045;23;20230;-91
2021/01/27 06:35:07;;;;;;;6.10;4.50;;;0.10;99.90;;;;;;6032971;23;20539;-89
2021/01/27 06:37:51;;;;;;;6.80;5.10;;;0.10;99.90;;;;;;6149574;23;20422;-89
2021/01/27 06:40:49;;;;;;;7.40;5.60;;;0.10;99.90;;;;;;6150899;23;20478;-89
2021/01/27 06:43:30;;;;;;;6.93;5.50;;;0.10;99.90;;;;;;6148890;23;20765;-89
2021/01/27 06:46:27;;;;;;;6.80;5.60;;;0.10;99.90;;;;;;6149255;23;21155;-89
2021/01/27 06:49:22;;;;;;;5.87;5.37;;;0.10;99.90;;;;;;6150724;23;20415;-89
2021/01/27 06:52:20;;;;;;;5.63;5.03;;;0.10;99.90;;;;;;6150778;23;20411;-89
2021/01/27 06:55:08;;;;;;;6.00;5.40;;;0.00;99.90;;;;;;6151059;23;20434;-89
2021/01/27 06:58:10;;;;;;;8.77;6.00;;;0.00;99.90;;;;;;6151396;23;20415;-88
2021/01/27 07:01:14;;;;;;;10.60;7.23;;;-0.10;99.90;;;;;;6150911;23;20399;-89
2021/01/27 07:04:10;;;;;;;6.87;5.33;;;0.00;99.90;;;;;;6150395;23;20907;-88
2021/01/27 07:06:55;;;;;;;5.50;4.90;;;0.00;99.90;;;;;;6149772;23;20423;-89
2021/01/27 07:09:34;;;;;;;7.50;5.20;;;0.00;99.90;;;;;;6151315;23;20403;-88
2021/01/27 07:12:25;;;;;;;6.27;4.60;;;0.10;99.90;;;;;;6151215;23;20431;-88
2021/01/27 07:15:17;;;;;;;6.60;5.17;;;0.20;99.90;;;;;;6150713;23;20510;-89
2021/01/27 07:18:01;;;;;;;5.20;4.67;;;0.20;99.90;;;;;;6150059;23;20765;-89
2021/01/27 07:20:33;;;;;;;5.03;4.53;;;0.30;99.90;;;;;;6150947;23;20420;-88
2021/01/27 07:23:10;;;;;;;5.63;4.60;;;0.20;99.90;;;;;;6150446;23;20400;-89
2021/01/27 07:26:11;;;;;;;5.37;3.90;;;0.30;99.90;;;;;;6150820;23;20403;-88
2021/01/27 07:29:00;;;;;;;5.57;4.80;;;0.40;99.90;;;;;;6149894;23;20399;-89
2021/01/27 07:31:56;;;;;;;4.77;4.27;;;0.40;99.90;;;;;;6150773;23;20407;-89
2021/01/27 07:34:50;;;;;;;4.73;4.23;;;0.40;99.90;;;;;;6149317;23;20415;-90
2021/01/27 07:37:24;;;;;;;7.87;5.33;;;0.50;99.90;;;;;;6178307;23;20436;-90
2021/01/27 07:39:59;;;;;;;5.83;4.30;;;0.60;99.90;;;;;;6149282;23;20388;-90
2021/01/27 07:42:55;;;;;;;9.07;4.47;;;0.60;99.90;;;;;;6147065;23;20449;-88
2021/01/27 07:45:26;;;;;;;6.00;3.73;;;0.60;99.90;;;;;;6148640;23;20398;-90
2021/01/27 07:48:19;;;;;;;5.03;4.53;;;0.70;99.90;;;;;;6147669;23;20399;-92
2021/01/27 07:50:55;;;;;;;5.40;4.57;;;0.70;99.90;;;;;;6150383;23;20404;-90
2021/01/27 07:53:42;;;;;;;6.53;4.07;;;0.60;99.90;;;;;;6125332;23;20406;-90
2021/01/27 07:56:28;;;;;;;5.63;4.30;;;0.60;99.90;;;;;;6174493;23;20766;-92
2021/01/27 07:59:08;;;;;;;4.63;4.07;;;0.60;99.90;;;;;;6153001;23;20809;-90
2021/01/27 08:01:49;;;;;;;6.90;4.80;;;0.50;99.90;;;;;;6153756;23;20403;-93
2021/01/27 08:04:37;;;;;;;6.90;5.17;;;0.50;99.90;;;;;;6153495;23;20490;-88
2021/01/27 08:07:03;;;;;;;6.97;5.30;;;0.40;99.90;;;;;;6150796;23;20407;-89
2021/01/27 08:09:31;;;;;;;5.27;4.20;;;0.40;99.90;;;;;;6150255;23;20633;-93
2021/01/27 08:12:30;;;;;;;6.73;6.00;;;0.50;99.90;;;;;;6150133;23;20168;-90
2021/01/27 08:15:25;;;;;;;6.40;5.57;;;0.60;99.90;;;;;;6148026;23;20467;-90
2021/01/27 08:17:59;;;;;;;6.57;5.37;;;0.60;99.90;;;;;;6135300;23;20404;-89
2021/01/27 08:20:33;;;;;;;9.33;6.40;;;0.60;99.90;;;;;;6148975;23;20438;-90
2021/01/27 08:23:30;;;;;;;7.90;5.67;;;0.70;99.90;;;;;;6174436;23;20888;-90
2021/01/27 08:26:05;;;;;;;6.93;5.70;;;0.60;99.90;;;;;;6148250;23;20408;-89
2021/01/27 08:29:04;;;;;;;6.77;5.40;;;0.60;99.90;;;;;;6149044;23;20725;-89
2021/01/27 08:31:30;;;;;;;7.90;6.07;;;0.60;99.90;;;;;;6150356;23;20432;-91
2021/01/27 08:33:57;;;;;;;6.07;5.47;;;0.60;99.90;;;;;;6124811;23;20869;-90
2021/01/27 08:36:29;;;;;;;213.97;135.77;;;0.50;99.90;;;;;;6149761;23;20474;-91
2021/01/27 08:38:58;;;;;;;6.53;5.60;;;0.50;99.90;;;;;;6149613;23;20487;-89
2021/01/27 08:41:42;;;;;;;8.93;6.73;;;0.40;99.90;;;;;;6148817;23;20498;-90
2021/01/27 08:44:28;;;;;;;6.30;4.80;;;0.50;99.90;;;;;;6151641;23;20399;-92
2021/01/27 08:47:07;;;;;;;7.27;5.70;;;0.60;99.90;;;;;;6134596;23;20395;-91
2021/01/27 08:49:48;;;;;;;6.80;5.00;;;0.60;99.90;;;;;;6150749;23;20943;-91
2021/01/27 08:52:14;;;;;;;10.20;5.70;;;0.70;99.90;;;;;;6176224;23;20486;-93
2021/01/27 08:54:40;;;;;;;9.77;5.83;;;0.60;99.90;;;;;;6149532;23;20447;-91
2021/01/27 08:57:44;;;;;;;6.50;5.90;;;0.60;99.90;;;;;;6149923;23;20672;-93
2021/01/27 09:00:17;;;;;;;6.47;5.43;;;0.70;99.90;;;;;;6148429;23;20164;-87
2021/01/27 09:02:51;;;;;;;6.13;5.53;;;0.70;99.90;;;;;;6125594;23;20419;-91
2021/01/27 09:05:26;;;;;;;8.13;5.87;;;0.80;99.90;;;;;;6150965;23;20605;-92
2021/01/27 09:07:56;;;;;;;5.13;4.47;;;1.00;99.90;;;;;;6149534;23;20450;-91
2021/01/27 09:10:36;;;;;;;6.30;5.63;;;0.90;99.90;;;;;;6149913;23;20454;-89
2021/01/27 09:13:23;;;;;;;10.30;5.47;;;0.80;99.90;;;;;;6148794;23;20423;-90
2021/01/27 09:16:24;;;;;;;5.83;4.70;;;0.80;99.90;;;;;;6148505;23;20735;-92
2021/01/27 09:19:09;;;;;;;5.60;5.10;;;0.70;99.90;;;;;;6149729;23;20407;-91
2021/01/27 09:21:36;;;;;;;6.07;5.47;;;0.80;99.90;;;;;;6148990;23;20554;-91
2021/01/27 09:24:09;;;;;;;6.00;5.40;;;0.90;99.90;;;;;;6153100;23;20892;-95
2021/01/27 09:26:48;;;;;;;8.20;5.87;;;0.90;99.90;;;;;;6149756;23;20387;-91
2021/01/27 09:29:23;;;;;;;9.77;6.00;;;1.00;99.90;;;;;;6175770;23;20718;-90
2021/01/27 09:31:48;;;;;;;8.23;6.03;;;1.00;99.90;;;;;;6149448;23;20395;-90
2021/01/27 09:34:28;;;;;;;6.20;5.57;;;1.00;99.90;;;;;;6174979;23;20792;-89
2021/01/27 09:37:02;;;;;;;6.67;5.90;;;1.10;99.90;;;;;;6148418;23;20470;-90
2021/01/27 09:39:41;;;;;;;6.57;5.50;;;1.10;99.90;;;;;;6149495;23;20946;-89
2021/01/27 09:42:18;;;;;;;6.70;6.10;;;1.10;99.90;;;;;;6148322;23;20427;-89
2021/01/27 09:44:48;;;;;;;9.63;7.00;;;1.10;99.90;;;;;;6149669;23;20386;-90
2021/01/27 09:47:35;;;;;;;7.13;5.77;;;1.10;99.90;;;;;;6156954;23;20407;-94
2021/01/27 09:50:05;;;;;;;6.63;5.50;;;1.20;99.90;;;;;;6132623;23;20395;-91
2021/01/27 09:52:32;;;;;;;8.70;6.20;;;1.20;99.90;;;;;;6151628;23;20730;-88
2021/01/27 09:55:15;;;;;;;6.97;6.37;;;1.20;99.90;;;;;;6176166;23;20402;-87
2021/01/27 09:57:43;;;;;;;9.83;6.30;;;1.20;99.90;;;;;;6147193;23;20422;-88
2021/01/27 10:00:21;;;;;;;7.70;6.10;;;1.20;99.90;;;;;;6150129;23;20419;-90
2021/01/27 10:02:47;;;;;;;6.90;5.87;;;1.30;99.90;;;;;;6150578;23;20773;-88
2021/01/27 10:05:40;;;;;;;8.00;6.23;;;1.40;99.90;;;;;;6150513;23;20398;-88
2021/01/27 10:08:40;;;;;;;6.93;6.23;;;1.30;99.90;;;;;;6150182;23;20489;-88
2021/01/27 10:11:39;;;;;;;8.03;6.00;;;1.40;99.90;;;;;;6152825;23;20396;-86
2021/01/27 10:14:28;;;;;;;6.00;5.07;;;1.40;99.90;;;;;;6180319;23;20704;-93
2021/01/27 10:16:57;;;;;;;6.10;5.60;;;1.40;99.90;;;;;;6152522;23;20447;-90
2021/01/27 10:19:44;;;;;;;7.80;5.63;;;1.60;99.90;;;;;;6178098;23;20392;-95
2021/01/27 10:22:11;;;;;;;8.30;6.07;;;1.50;99.90;;;;;;6151465;23;20384;-89
2021/01/27 10:24:55;;;;;;;6.80;6.10;;;1.50;99.90;;;;;;6182302;23;21161;-94
2021/01/27 10:27:40;;;;;;;6.70;6.00;;;1.50;99.90;;;;;;6179222;23;20411;-94
2021/01/27 10:30:15;;;;;;;5.50;4.90;;;1.50;99.90;;;;;;6156283;23;20403;-90
2021/01/27 10:32:51;;;;;;;6.17;4.77;;;1.60;99.90;;;;;;6155267;23;20391;-96
2021/01/27 10:35:40;;;;;;;5.57;4.97;;;1.60;99.90;;;;;;6154699;23;20399;-96
2021/01/27 10:38:06;;;;;;;7.23;5.93;;;1.70;99.90;;;;;;6151633;23;20475;-91
2021/01/27 10:40:33;;;;;;;6.40;5.80;;;1.90;99.90;;;;;;6155187;23;20953;-96
2021/01/27 10:43:10;;;;;;;10.03;6.30;;;1.80;99.90;;;;;;6155091;23;20782;-95
2021/01/27 10:45:38;;;;;;;7.63;6.43;;;1.80;99.90;;;;;;6151468;23;20399;-95
2021/01/27 10:48:10;;;;;;;11.00;6.57;;;1.80;99.90;;;;;;6153219;23;20399;-94
2021/01/27 10:50:44;;;;;;;6.67;5.97;;;1.70;99.90;;;;;;6153724;23;20443;-94
2021/01/27 10:53:16;;;;;;;7.50;5.30;;;1.90;99.90;;;;;;6155054;23;20398;-94
2021/01/27 10:55:53;;;;;;;5.40;4.10;;;2.00;99.90;;;;;;6154969;23;20458;-95
2021/01/27 10:58:20;;;;;;;9.77;6.83;;;2.10;99.90;;;;;;6152850;23;20399;-93
2021/01/27 11:00:46;;;;;;;4.17;3.77;;;2.10;99.90;;;;;;6146141;23;20786;-94
2021/01/27 11:03:13;;;;;;;4.00;3.67;;;1.90;99.90;;;;;;6143952;23;20404;-94
2021/01/27 11:05:40;;;;;;;4.60;4.17;;;1.60;99.90;;;;;;6145763;23;20474;-95
2021/01/27 11:08:10;;;;;;;4.63;4.17;;;1.60;99.90;;;;;;6146992;23;20399;-95
2021/01/27 11:10:36;;;;;;;5.90;4.27;;;1.70;99.90;;;;;;6147036;23;20513;-92
2021/01/27 11:13:02;;;;;;;4.20;3.80;;;1.80;99.90;;;;;;6152441;23;20430;-94
2021/01/27 11:15:33;;;;;;;4.10;3.10;;;1.70;99.90;;;;;;6176346;23;20168;-95
2021/01/27 11:18:00;;;;;;;4.73;4.03;;;1.60;99.90;;;;;;6148260;23;20412;-94
2021/01/27 11:20:27;;;;;;;4.00;3.57;;;1.70;99.90;;;;;;6147490;23;20419;-95
2021/01/27 11:22:53;;;;;;;5.00;4.50;;;1.70;99.90;;;;;;6146755;23;20478;-95
2021/01/27 11:25:25;;;;;;;3.53;3.23;;;1.70;99.90;;;;;;6146482;23;20408;-96
2021/01/27 11:27:52;;;;;;;4.17;3.43;;;1.80;99.90;;;;;;6151018;23;20414;-96
2021/01/27 11:30:22;;;;;;;4.13;3.40;;;1.80;99.90;;;;;;6156951;23;20423;-95
2021/01/27 11:32:48;;;;;;;2.60;2.40;;;1.80;99.90;;;;;;6160332;23;20660;-95
2021/01/27 11:35:15;;;;;;;4.33;2.73;;;1.90;99.90;;;;;;6160814;23;20970;-95
2021/01/27 11:37:41;;;;;;;5.30;3.93;;;2.00;99.90;;;;;;6151924;23;20176;-90
2021/01/27 11:40:11;;;;;;;4.80;2.77;;;2.00;99.90;;;;;;6179999;23;20395;-95
2021/01/27 11:42:38;;;;;;;2.90;2.23;;;2.00;99.90;;;;;;6151120;23;20418;-93
2021/01/27 11:45:22;;;;;;;2.90;2.60;;;2.10;99.90;;;;;;6146992;23;20461;-89
2021/01/27 11:47:53;;;;;;;6.13;3.20;;;2.20;99.90;;;;;;6153055;23;20443;-94
2021/01/27 11:50:22;;;;;;;6.43;4.30;;;2.60;99.90;;;;;;6149882;23;20650;-93
2021/01/27 11:52:49;;;;;;;4.83;3.30;;;2.70;99.90;;;;;;6147690;23;20412;-93
2021/01/27 11:55:16;;;;;;;3.40;3.10;;;3.00;99.90;;;;;;6152418;23;20407;-95
2021/01/27 11:57:42;;;;;;;3.57;3.27;;;3.00;99.90;;;;;;6154862;23;20503;-93
2021/01/27 12:00:10;;;;;;;4.50;4.10;;;2.60;99.90;;;;;;6153704;23;20404;-96
2021/01/27 12:02:36;;;;;;;4.67;3.80;;;2.80;99.90;;;;;;6157054;23;20404;-95
2021/01/27 12:05:03;;;;;;;5.00;2.93;;;2.80;99.90;;;;;;6150994;23;20482;-90
2021/01/27 12:07:29;;;;;;;5.40;3.23;;;2.60;99.90;;;;;;6146681;23;20160;-90
2021/01/27 12:09:54;;;;;;;3.60;3.30;;;2.30;99.90;;;;;;6148231;23;20461;-92
2021/01/27 12:12:20;;;;;;;4.57;3.27;;;2.40;99.90;;;;;;6145737;23;20471;-92
2021/01/27 12:14:46;;;;;;;5.13;3.70;;;2.30;99.90;;;;;;6146569;23;20175;-94
2021/01/27 12:17:11;;;;;;;7.53;3.10;;;2.30;99.90;;;;;;6146444;23;20283;-92
2021/01/27 12:19:48;;;;;;;8.77;4.43;;;2.00;99.90;;;;;;6144987;23;20602;-93
2021/01/27 12:22:20;;;;;;;5.10;3.80;;;1.90;99.90;;;;;;6148937;23;20491;-93
2021/01/27 12:24:45;;;;;;;3.80;3.27;;;2.00;99.90;;;;;;6146172;23;20482;-92
2021/01/27 12:27:11;;;;;;;2.97;2.67;;;2.00;99.90;;;;;;6146547;23;20415;-91
2021/01/27 12:29:37;;;;;;;6.30;3.80;;;1.90;99.90;;;;;;6147623;23;20247;-92
2021/01/27 12:32:03;;;;;;;5.87;3.70;;;2.20;99.90;;;;;;6144189;23;20430;-92
2021/01/27 12:34:28;;;;;;;4.20;3.67;;;2.10;99.90;;;;;;6140256;23;20176;-92
2021/01/27 12:36:54;;;;;;;3.20;2.90;;;2.10;99.90;;;;;;6144872;23;20200;-93
2021/01/27 12:39:22;;;;;;;5.13;4.00;;;2.30;99.90;;;;;;6143548;23;20611;-92
2021/01/27 12:41:49;;;;;;;4.90;3.37;;;2.30;99.90;;;;;;6142879;23;20387;-92
2021/01/27 12:44:15;;;;;;;3.10;2.83;;;2.30;99.90;;;;;;6143533;23;20401;-93
2021/01/27 12:46:41;;;;;;;3.90;3.50;;;2.30;99.90;;;;;;6144972;23;20454;-92
2021/01/27 12:49:07;;;;;;;4.10;3.00;;;2.40;99.90;;;;;;6145589;23;20784;-92
2021/01/27 12:51:33;;;;;;;3.10;2.90;;;2.50;99.90;;;;;;6143544;23;20206;-93
2021/01/27 12:53:59;;;;;;;3.90;3.00;;;2.70;99.90;;;;;;6142162;23;20234;-91
2021/01/27 12:56:28;;;;;;;3.10;2.80;;;2.60;99.90;;;;;;6142359;23;20913;-91
2021/01/27 12:58:54;;;;;;;3.20;2.90;;;2.60;99.90;;;;;;6144848;23;20464;-94
2021/01/27 13:01:21;;;;;;;3.67;2.90;;;2.50;99.90;;;;;;6142051;23;20404;-93
2021/01/27 13:03:49;;;;;;;5.10;3.13;;;2.50;99.90;;;;;;6144801;23;20399;-95
2021/01/27 13:06:15;;;;;;;8.57;4.73;;;2.60;99.90;;;;;;6143847;23;20462;-90
2021/01/27 13:08:42;;;;;;;5.63;4.20;;;2.90;99.90;;;;;;6141300;23;20447;-95
2021/01/27 13:11:10;;;;;;;5.63;4.70;;;3.10;99.90;;;;;;6170909;23;20399;-95
2021/01/27 13:13:43;;;;;;;6.10;4.47;;;3.10;99.90;;;;;;6142608;23;20399;-94
2021/01/27 13:16:11;;;;;;;8.23;4.37;;;3.20;99.90;;;;;;6141413;23;20443;-94
2021/01/27 13:18:37;;;;;;;7.40;6.50;;;3.20;99.90;;;;;;6146671;23;20399;-93
2021/01/27 13:21:04;;;;;;;5.07;3.50;;;3.00;99.90;;;;;;6145237;23;20435;-94
2021/01/27 13:23:34;;;;;;;4.63;3.63;;;2.90;99.90;;;;;;6145754;23;20594;-94
2021/01/27 13:26:03;;;;;;;5.47;4.00;;;2.50;99.90;;;;;;6146223;23;20418;-94
2021/01/27 13:28:31;;;;;;;4.53;4.10;;;2.30;99.90;;;;;;6148050;23;20400;-93
2021/01/27 13:31:00;;;;;;;5.33;4.83;;;2.10;99.90;;;;;;6172474;23;20430;-95
2021/01/27 13:33:35;;;;;;;6.43;5.13;;;2.00;99.90;;;;;;6146096;23;20795;-94
2021/01/27 13:36:01;;;;;;;4.67;3.93;;;2.10;99.90;;;;;;6147964;23;20485;-92